Time;durP1;ratioP1;P1;durP2;ratioP2;P2;SDS_P1;SDS_P2;PMS_P1;PMS_P2;Temp;Humidity;BMP_temperature;BMP_pressure;BME280_temperature;BME280_humidity;BME280_pressure;Samples;Min_cycle;Max_cycle;Signal;HPM_P1;HPM_P2
2023/01/08 00:01:41;;;;;;;2.65;1.73;;;12.30;99.90;;;;;;5034923;28;20069;-68
2023/01/08 00:04:06;;;;;;;3.80;1.40;;;9.80;99.90;;;;;;5034914;28;20087;-69
2023/01/08 00:06:32;;;;;;;2.20;1.20;;;9.80;99.90;;;;;;5035701;28;20128;-70
2023/01/08 00:08:58;;;;;;;3.20;1.20;;;9.80;99.90;;;;;;5038557;28;20043;-69
2023/01/08 00:11:24;;;;;;;3.08;1.42;;;9.70;99.90;;;;;;5056558;28;20040;-69
2023/01/08 00:13:49;;;;;;;2.03;1.17;;;9.70;99.90;;;;;;5056426;28;20051;-69
2023/01/08 00:16:16;;;;;;;4.53;1.05;;;9.70;99.90;;;;;;5038717;28;20048;-69
2023/01/08 00:18:43;;;;;;;1.60;1.10;;;9.60;99.90;;;;;;5038315;28;20049;-69
2023/01/08 00:21:09;;;;;;;1.83;1.20;;;9.60;99.90;;;;;;5038549;28;20053;-69
2023/01/08 00:23:35;;;;;;;2.95;1.13;;;9.50;99.90;;;;;;5038187;28;20033;-69
2023/01/08 00:26:06;;;;;;;2.10;1.17;;;9.60;99.90;;;;;;5056361;28;20432;-69
2023/01/08 00:28:31;;;;;;;2.45;1.35;;;9.60;99.90;;;;;;5056300;28;20461;-69
2023/01/08 00:30:57;;;;;;;2.83;1.55;;;9.70;99.90;;;;;;5038153;28;20048;-68
2023/01/08 00:33:23;;;;;;;2.58;1.30;;;9.70;99.90;;;;;;5054669;28;20049;-68
2023/01/08 00:35:48;;;;;;;1.08;0.88;;;9.70;99.90;;;;;;5037950;28;20410;-68
2023/01/08 00:38:14;;;;;;;3.10;1.50;;;9.80;99.90;;;;;;5038146;28;20037;-69
2023/01/08 00:40:40;;;;;;;2.75;1.52;;;9.80;99.90;;;;;;5056029;28;20061;-69
2023/01/08 00:43:06;;;;;;;3.35;0.93;;;9.80;99.90;;;;;;5037871;28;20045;-69
2023/01/08 00:45:32;;;;;;;2.40;1.33;;;9.80;99.90;;;;;;5021665;28;20040;-69
2023/01/08 00:47:58;;;;;;;2.63;1.63;;;9.80;99.90;;;;;;5038014;28;20045;-68
2023/01/08 00:50:24;;;;;;;2.38;1.38;;;9.80;99.90;;;;;;5055624;28;20136;-68
2023/01/08 00:52:50;;;;;;;1.20;1.10;;;9.60;99.90;;;;;;5038025;28;20091;-69
2023/01/08 00:55:16;;;;;;;2.33;1.20;;;9.60;99.90;;;;;;5055673;28;20469;-68
2023/01/08 00:57:41;;;;;;;1.30;0.77;;;9.60;99.90;;;;;;5037859;28;20041;-69
2023/01/08 01:00:10;;;;;;;0.80;0.80;;;9.60;99.90;;;;;;5037732;28;20480;-68
2023/01/08 01:02:36;;;;;;;6.00;1.13;;;9.50;99.90;;;;;;5055568;28;20041;-68
2023/01/08 01:05:03;;;;;;;3.95;1.50;;;9.90;99.90;;;;;;5055566;28;20037;-68
2023/01/08 01:07:29;;;;;;;2.65;1.27;;;9.40;99.90;;;;;;5037337;28;20057;-68
2023/01/08 01:09:54;;;;;;;1.83;1.30;;;9.40;99.90;;;;;;5055370;28;20032;-69
2023/01/08 01:12:20;;;;;;;2.28;1.30;;;9.40;99.90;;;;;;5055328;28;20051;-68
2023/01/08 01:14:45;;;;;;;3.60;1.48;;;9.40;99.90;;;;;;5037244;28;20063;-68
2023/01/08 01:17:11;;;;;;;2.08;1.42;;;9.40;99.90;;;;;;5036788;28;20049;-68
2023/01/08 01:19:37;;;;;;;1.70;1.10;;;9.40;99.90;;;;;;5055082;28;20025;-69
2023/01/08 01:22:03;;;;;;;2.22;1.30;;;9.50;99.90;;;;;;5055212;28;20041;-68
2023/01/08 01:24:29;;;;;;;1.88;1.30;;;10.00;99.90;;;;;;5055172;28;20037;-69
2023/01/08 01:26:57;;;;;;;1.95;1.15;;;9.50;99.90;;;;;;5055145;28;20416;-68
2023/01/08 01:29:24;;;;;;;3.15;1.75;;;9.50;99.90;;;;;;5036910;28;20412;-68
2023/01/08 01:31:50;;;;;;;0.68;0.52;;;10.10;99.90;;;;;;5037085;28;20040;-68
2023/01/08 01:34:15;;;;;;;4.32;1.42;;;9.50;99.90;;;;;;5036651;28;20056;-69
2023/01/08 01:36:41;;;;;;;1.35;0.90;;;9.60;99.90;;;;;;5054861;28;20110;-69
2023/01/08 01:39:07;;;;;;;2.30;1.13;;;9.60;99.90;;;;;;5054868;28;20029;-68
2023/01/08 01:41:39;;;;;;;2.70;1.30;;;9.50;99.90;;;;;;5054552;28;20074;-68
2023/01/08 01:44:32;;;;;;;1.63;1.00;;;9.60;99.90;;;;;;5054794;28;20508;-69
2023/01/08 01:47:00;;;;;;;2.03;1.40;;;9.60;99.90;;;;;;5054498;28;20049;-68
2023/01/08 01:49:26;;;;;;;1.40;0.98;;;9.60;99.90;;;;;;5019976;28;20045;-69
2023/01/08 01:51:55;;;;;;;3.28;1.27;;;9.50;99.90;;;;;;5054466;28;20045;-69
2023/01/08 01:54:21;;;;;;;2.63;0.95;;;9.50;99.90;;;;;;5036344;28;20063;-69
2023/01/08 01:56:48;;;;;;;1.90;0.60;;;9.50;99.90;;;;;;5036344;28;20097;-68
2023/01/08 01:59:14;;;;;;;1.58;1.08;;;9.40;99.90;;;;;;5036306;28;20041;-69
2023/01/08 02:01:41;;;;;;;3.88;0.80;;;9.40;99.90;;;;;;5054430;28;20036;-68
2023/01/08 02:04:09;;;;;;;2.50;1.00;;;9.40;99.90;;;;;;5036226;28;20396;-68
2023/01/08 02:06:44;;;;;;;3.53;0.82;;;9.30;99.90;;;;;;5054386;28;20072;-68
2023/01/08 02:09:40;;;;;;;7.45;1.02;;;9.30;99.90;;;;;;5053960;28;20041;-69
2023/01/08 02:12:23;;;;;;;1.75;0.70;;;9.30;99.90;;;;;;5019462;28;20082;-69
2023/01/08 02:15:00;;;;;;;3.00;1.20;;;9.20;99.90;;;;;;5036412;28;20128;-69
2023/01/08 02:17:45;;;;;;;2.15;0.60;;;9.20;99.90;;;;;;5054191;28;20051;-68
2023/01/08 02:20:18;;;;;;;1.30;0.63;;;9.10;99.90;;;;;;5035839;28;20049;-68
2023/01/08 02:23:09;;;;;;;1.92;0.60;;;9.10;99.90;;;;;;5053806;28;20044;-69
2023/01/08 02:26:12;;;;;;;0.93;0.30;;;8.90;99.90;;;;;;5054057;28;20041;-69
2023/01/08 02:29:00;;;;;;;1.83;0.60;;;8.90;99.90;;;;;;5018931;28;20100;-68
2023/01/08 02:31:28;;;;;;;3.47;0.70;;;8.80;99.90;;;;;;5036000;28;20527;-69
2023/01/08 02:33:54;;;;;;;1.23;0.52;;;8.80;99.90;;;;;;5053380;28;20057;-68
2023/01/08 02:36:25;;;;;;;2.70;0.85;;;9.10;99.90;;;;;;5053685;28;20044;-68
2023/01/08 02:39:03;;;;;;;1.60;0.65;;;8.70;99.90;;;;;;5035636;28;20403;-69
2023/01/08 02:41:43;;;;;;;1.50;0.60;;;8.70;99.90;;;;;;5035844;28;20492;-69
2023/01/08 02:44:16;;;;;;;0.57;0.30;;;8.70;99.90;;;;;;5052476;28;20580;-68
2023/01/08 02:46:42;;;;;;;6.50;0.85;;;8.60;99.90;;;;;;5035511;28;20175;-69
2023/01/08 02:49:12;;;;;;;3.33;0.60;;;8.60;99.90;;;;;;5053501;28;20041;-68
2023/01/08 02:51:51;;;;;;;2.60;0.60;;;8.60;99.90;;;;;;5035391;28;20045;-68
2023/01/08 02:54:21;;;;;;;3.53;0.43;;;8.60;99.90;;;;;;5053317;28;20044;-68
2023/01/08 02:56:54;;;;;;;3.78;0.60;;;8.60;99.90;;;;;;5053150;28;20041;-68
2023/01/08 02:59:21;;;;;;;3.45;0.50;;;8.60;99.90;;;;;;5053402;28;20408;-69
2023/01/08 03:01:47;;;;;;;1.48;0.80;;;8.50;99.90;;;;;;5035126;28;20112;-69
2023/01/08 03:04:17;;;;;;;3.92;0.50;;;8.60;99.90;;;;;;5052883;28;20033;-68
2023/01/08 03:06:44;;;;;;;1.80;0.90;;;8.60;99.90;;;;;;5035114;28;20076;-68
2023/01/08 03:09:10;;;;;;;2.72;0.65;;;8.50;99.90;;;;;;5035367;28;20049;-68
2023/01/08 03:11:45;;;;;;;6.80;1.00;;;8.50;99.90;;;;;;5053200;28;20071;-68
2023/01/08 03:14:19;;;;;;;8.60;1.15;;;8.50;99.90;;;;;;5051787;28;20041;-68
2023/01/08 03:16:48;;;;;;;2.42;0.93;;;8.40;99.90;;;;;;5053052;28;20045;-68
2023/01/08 03:19:22;;;;;;;3.58;0.57;;;9.70;99.90;;;;;;5035109;28;20386;-68
2023/01/08 03:21:50;;;;;;;3.88;0.73;;;8.40;99.90;;;;;;5035075;28;20067;-68
2023/01/08 03:24:24;;;;;;;1.25;0.68;;;8.40;99.90;;;;;;5034909;28;20040;-68
2023/01/08 03:26:52;;;;;;;3.50;0.50;;;8.40;99.90;;;;;;5053030;28;20087;-68
2023/01/08 03:29:20;;;;;;;3.38;0.80;;;8.40;99.90;;;;;;5034797;28;20119;-68
2023/01/08 03:31:47;;;;;;;4.63;0.90;;;8.40;99.90;;;;;;5052984;28;20040;-68
2023/01/08 03:34:15;;;;;;;0.65;0.43;;;8.40;99.90;;;;;;5052594;28;20132;-68
2023/01/08 03:36:45;;;;;;;1.20;0.60;;;8.40;99.90;;;;;;5034676;28;20095;-69
2023/01/08 03:39:32;;;;;;;1.92;1.08;;;9.00;99.90;;;;;;5052569;28;20090;-68
2023/01/08 03:42:05;;;;;;;1.75;0.68;;;8.40;99.90;;;;;;5056716;28;20524;-68
2023/01/08 03:44:30;;;;;;;2.75;0.80;;;8.40;99.90;;;;;;5056880;28;20112;-68
2023/01/08 03:46:57;;;;;;;2.65;0.90;;;8.40;99.90;;;;;;5057005;28;20080;-68
2023/01/08 03:49:25;;;;;;;1.45;0.70;;;9.00;99.90;;;;;;5038848;28;20045;-68
2023/01/08 03:51:51;;;;;;;2.38;0.85;;;8.40;99.90;;;;;;5038670;28;20040;-68
2023/01/08 03:54:22;;;;;;;1.63;0.80;;;8.40;99.90;;;;;;5038730;28;20040;-68
2023/01/08 03:56:48;;;;;;;1.02;0.57;;;8.40;99.90;;;;;;5038634;28;20044;-68
2023/01/08 03:59:14;;;;;;;5.22;1.30;;;8.40;99.90;;;;;;5038916;28;20037;-68
2023/01/08 04:01:40;;;;;;;2.13;0.88;;;8.40;99.90;;;;;;5038491;28;20083;-68
2023/01/08 04:04:06;;;;;;;3.92;1.27;;;8.50;99.90;;;;;;5038488;28;20037;-68
2023/01/08 04:06:33;;;;;;;1.20;0.75;;;8.50;99.90;;;;;;5056274;28;20055;-68
2023/01/08 04:08:58;;;;;;;1.58;1.00;;;8.50;99.90;;;;;;5038671;28;20496;-68
2023/01/08 04:11:24;;;;;;;1.85;1.05;;;8.50;99.90;;;;;;5038429;28;20051;-68
2023/01/08 04:13:50;;;;;;;3.63;1.38;;;8.50;99.90;;;;;;5038377;28;20044;-68
2023/01/08 04:16:15;;;;;;;1.05;0.75;;;8.50;99.90;;;;;;5056078;28;20418;-68
2023/01/08 04:18:41;;;;;;;2.25;1.08;;;8.60;99.90;;;;;;5038188;28;20044;-68
2023/01/08 04:21:07;;;;;;;2.08;0.90;;;8.60;99.90;;;;;;5056089;28;20045;-68
2023/01/08 04:23:32;;;;;;;2.10;1.15;;;8.60;99.90;;;;;;5038050;28;20037;-69
2023/01/08 04:25:58;;;;;;;1.48;1.15;;;8.60;99.90;;;;;;5037978;28;20496;-68
2023/01/08 04:28:23;;;;;;;1.73;1.20;;;8.70;99.90;;;;;;5055668;28;20037;-68
2023/01/08 04:30:49;;;;;;;1.50;0.93;;;8.70;99.90;;;;;;5037950;28;20097;-69
2023/01/08 04:33:15;;;;;;;0.85;0.63;;;8.80;99.90;;;;;;5037727;28;20084;-68
2023/01/08 04:35:42;;;;;;;0.93;0.63;;;8.80;99.90;;;;;;5038279;28;20049;-68
2023/01/08 04:38:08;;;;;;;1.73;0.80;;;8.80;99.90;;;;;;5037914;28;20472;-68
2023/01/08 04:40:34;;;;;;;1.38;1.00;;;8.80;99.90;;;;;;5038275;28;20037;-68
2023/01/08 04:43:00;;;;;;;2.67;0.80;;;8.80;99.90;;;;;;5037815;28;20037;-68
2023/01/08 04:45:25;;;;;;;0.63;0.45;;;8.80;99.90;;;;;;5055942;28;20468;-68
2023/01/08 04:47:58;;;;;;;1.05;0.63;;;8.80;99.90;;;;;;5037765;28;20377;-68
2023/01/08 04:50:24;;;;;;;1.35;0.77;;;8.90;99.90;;;;;;5037651;28;20052;-68
2023/01/08 04:52:50;;;;;;;1.00;0.90;;;8.90;99.90;;;;;;5036912;28;20078;-68
2023/01/08 04:55:16;;;;;;;5.07;1.23;;;8.90;99.90;;;;;;5037814;28;20041;-68
2023/01/08 04:57:41;;;;;;;5.05;1.20;;;8.90;99.90;;;;;;5055688;28;20037;-68
2023/01/08 05:00:08;;;;;;;2.65;0.63;;;8.90;99.90;;;;;;5037554;28;20048;-68
2023/01/08 05:02:33;;;;;;;10.82;1.50;;;8.80;99.90;;;;;;5037783;28;20041;-68
2023/01/08 05:04:59;;;;;;;1.67;0.80;;;8.90;99.90;;;;;;5055418;28;20048;-68
2023/01/08 05:07:25;;;;;;;3.42;1.00;;;8.80;99.90;;;;;;5037299;28;20504;-69
2023/01/08 05:09:51;;;;;;;4.72;1.00;;;8.80;99.90;;;;;;5037150;28;20120;-69
2023/01/08 05:12:16;;;;;;;2.13;0.60;;;8.80;99.90;;;;;;5055380;28;20043;-68
2023/01/08 05:14:42;;;;;;;1.58;1.05;;;8.80;99.90;;;;;;5037230;28;20041;-68
2023/01/08 05:17:08;;;;;;;1.30;1.17;;;8.80;99.90;;;;;;5037277;28;20056;-68
2023/01/08 05:19:33;;;;;;;1.02;0.90;;;8.80;99.90;;;;;;5037450;28;20037;-68
2023/01/08 05:21:59;;;;;;;0.88;0.63;;;8.80;99.90;;;;;;5054852;28;20037;-68
2023/01/08 05:24:24;;;;;;;1.27;0.75;;;8.70;99.90;;;;;;5054876;28;20048;-68
2023/01/08 05:26:50;;;;;;;3.63;1.00;;;8.70;99.90;;;;;;5054872;28;20047;-68
2023/01/08 05:29:16;;;;;;;1.38;1.05;;;8.70;99.90;;;;;;5036984;28;20110;-68
2023/01/08 05:31:42;;;;;;;1.25;0.63;;;8.70;99.90;;;;;;5054430;28;20129;-68
2023/01/08 05:34:07;;;;;;;1.10;0.80;;;8.70;99.90;;;;;;5036704;28;20088;-68
2023/01/08 05:36:33;;;;;;;0.95;0.70;;;8.60;99.90;;;;;;5054532;28;20041;-68
2023/01/08 05:38:58;;;;;;;0.60;0.52;;;8.60;99.90;;;;;;5054545;28;20468;-68
2023/01/08 05:41:24;;;;;;;1.48;0.85;;;8.60;99.90;;;;;;5020287;28;20083;-68
2023/01/08 05:43:50;;;;;;;6.57;1.63;;;8.60;99.90;;;;;;5036233;28;20439;-69
2023/01/08 05:46:15;;;;;;;0.70;0.70;;;8.60;99.90;;;;;;5054053;28;20037;-68
2023/01/08 05:48:41;;;;;;;0.90;0.60;;;8.50;99.90;;;;;;5036528;28;20037;-68
2023/01/08 05:51:07;;;;;;;0.60;0.55;;;8.50;99.90;;;;;;5036252;28;20049;-68
2023/01/08 05:53:32;;;;;;;3.55;0.93;;;8.50;99.90;;;;;;5019750;28;20502;-69
2023/01/08 05:56:00;;;;;;;0.63;0.52;;;8.50;99.90;;;;;;5054270;28;20138;-69
2023/01/08 05:58:26;;;;;;;1.02;0.77;;;8.40;99.90;;;;;;5036631;28;20045;-68
2023/01/08 06:00:52;;;;;;;0.93;0.60;;;8.40;99.90;;;;;;5054139;28;20171;-68
2023/01/08 06:03:21;;;;;;;2.95;0.95;;;8.40;99.90;;;;;;5035722;28;20041;-68
2023/01/08 06:05:47;;;;;;;1.73;0.93;;;8.30;99.90;;;;;;5036042;28;20399;-68
2023/01/08 06:08:12;;;;;;;1.00;0.70;;;8.40;99.90;;;;;;5036172;28;20045;-68
2023/01/08 06:10:38;;;;;;;2.20;1.33;;;8.30;99.90;;;;;;5054348;28;20500;-68
2023/01/08 06:13:08;;;;;;;1.52;1.05;;;8.40;99.90;;;;;;5036158;28;20128;-68
2023/01/08 06:15:33;;;;;;;3.28;1.20;;;8.40;99.90;;;;;;5035833;28;20063;-68
2023/01/08 06:18:03;;;;;;;1.85;1.23;;;8.40;99.90;;;;;;5035850;28;20487;-68
2023/01/08 06:20:29;;;;;;;1.60;1.00;;;8.30;99.90;;;;;;5035975;28;20059;-68
2023/01/08 06:22:54;;;;;;;1.55;0.80;;;8.40;99.90;;;;;;5036100;28;20484;-68
2023/01/08 06:25:20;;;;;;;1.67;0.95;;;8.30;99.90;;;;;;5019505;28;20495;-69
2023/01/08 06:27:52;;;;;;;0.80;0.80;;;8.30;99.90;;;;;;5019974;28;20049;-69
2023/01/08 06:30:18;;;;;;;1.35;1.08;;;8.30;99.90;;;;;;5054013;28;20044;-70
2023/01/08 06:32:44;;;;;;;1.17;0.90;;;8.30;99.90;;;;;;5053674;28;20350;-68
2023/01/08 06:35:09;;;;;;;1.75;1.10;;;8.30;99.90;;;;;;5035850;28;20052;-72
2023/01/08 06:37:35;;;;;;;1.60;0.68;;;8.30;99.90;;;;;;5035735;28;20040;-68
2023/01/08 06:40:00;;;;;;;1.83;0.98;;;8.40;99.90;;;;;;5035842;28;20040;-68
2023/01/08 06:42:26;;;;;;;1.02;0.68;;;8.30;99.90;;;;;;5053776;28;20484;-72
2023/01/08 06:44:52;;;;;;;3.17;0.85;;;8.30;99.90;;;;;;5019313;28;20037;-69
2023/01/08 06:47:17;;;;;;;2.15;0.88;;;8.30;99.90;;;;;;5035813;28;20048;-68
2023/01/08 06:49:43;;;;;;;3.53;0.88;;;8.30;99.90;;;;;;5035490;28;20041;-68
2023/01/08 06:52:09;;;;;;;0.90;0.70;;;8.30;99.90;;;;;;5035584;28;20045;-68
2023/01/08 06:54:34;;;;;;;1.80;0.47;;;8.20;99.90;;;;;;5053020;28;20389;-68
2023/01/08 06:57:00;;;;;;;2.97;0.82;;;8.20;99.90;;;;;;5052467;28;20111;-68
2023/01/08 06:59:25;;;;;;;2.58;0.82;;;8.20;99.90;;;;;;5034495;28;20477;-67
2023/01/08 07:01:51;;;;;;;1.05;0.60;;;8.10;99.90;;;;;;5052446;28;20116;-71
2023/01/08 07:04:18;;;;;;;2.80;0.63;;;8.10;99.90;;;;;;5052449;28;20040;-67
2023/01/08 07:06:43;;;;;;;0.40;0.40;;;8.00;99.90;;;;;;5034289;28;20076;-67
2023/01/08 07:09:13;;;;;;;0.43;0.40;;;8.00;99.90;;;;;;5034153;28;20076;-68
2023/01/08 07:11:40;;;;;;;0.55;0.43;;;8.00;99.90;;;;;;5052241;28;20447;-68
2023/01/08 07:14:06;;;;;;;0.68;0.40;;;8.00;99.90;;;;;;5051983;28;20068;-68
2023/01/08 07:16:32;;;;;;;0.95;0.77;;;8.00;99.90;;;;;;5051838;28;20076;-67
2023/01/08 07:18:57;;;;;;;0.50;0.45;;;8.00;99.90;;;;;;5051922;28;20543;-67
2023/01/08 07:21:23;;;;;;;1.35;0.50;;;7.90;99.90;;;;;;5033947;28;20108;-68
2023/01/08 07:23:49;;;;;;;1.85;0.70;;;7.90;99.90;;;;;;5033902;28;20056;-67
2023/01/08 07:26:15;;;;;;;3.30;0.55;;;7.90;99.90;;;;;;5051717;28;20041;-67
2023/01/08 07:28:41;;;;;;;1.33;0.60;;;7.90;99.90;;;;;;5034173;28;20049;-68
2023/01/08 07:31:07;;;;;;;2.50;0.73;;;8.50;99.90;;;;;;5052143;28;20045;-67
2023/01/08 07:33:33;;;;;;;5.70;0.85;;;7.80;99.90;;;;;;5033907;28;20053;-67
2023/01/08 07:35:59;;;;;;;2.45;0.93;;;8.10;99.90;;;;;;5052028;28;20401;-67
2023/01/08 07:38:25;;;;;;;1.20;0.73;;;7.90;99.90;;;;;;5051833;28;20048;-67
2023/01/08 07:40:50;;;;;;;1.30;0.40;;;7.90;99.90;;;;;;5033937;28;20040;-69
2023/01/08 07:43:16;;;;;;;1.13;0.60;;;7.90;99.90;;;;;;5051760;28;20535;-68
2023/01/08 07:45:42;;;;;;;0.73;0.70;;;7.90;99.90;;;;;;5051793;28;20400;-68
2023/01/08 07:48:14;;;;;;;1.52;0.70;;;7.80;99.90;;;;;;5034130;28;20508;-69
2023/01/08 07:50:41;;;;;;;1.73;0.80;;;7.80;99.90;;;;;;5034057;28;20045;-69
2023/01/08 07:53:07;;;;;;;3.28;0.70;;;7.80;99.90;;;;;;5033926;28;20412;-68
2023/01/08 07:55:33;;;;;;;0.93;0.50;;;7.80;99.90;;;;;;5051787;28;20049;-69
2023/01/08 07:57:58;;;;;;;0.90;0.70;;;7.80;99.90;;;;;;5033749;28;20055;-68
2023/01/08 08:00:24;;;;;;;0.95;0.73;;;7.90;99.90;;;;;;5034097;28;20423;-71
2023/01/08 08:02:50;;;;;;;2.05;0.73;;;7.90;99.90;;;;;;5033657;28;20040;-70
2023/01/08 08:05:16;;;;;;;2.75;1.00;;;7.90;99.90;;;;;;5033998;28;20564;-69
2023/01/08 08:07:42;;;;;;;1.73;0.68;;;7.80;99.90;;;;;;5033668;28;20124;-69
2023/01/08 08:10:08;;;;;;;3.08;1.02;;;7.80;99.90;;;;;;5034252;28;20108;-72
2023/01/08 08:12:33;;;;;;;5.18;1.10;;;7.80;99.90;;;;;;5033619;28;20044;-73
2023/01/08 08:14:59;;;;;;;4.10;1.15;;;7.80;99.90;;;;;;5033650;28;20116;-69
2023/01/08 08:17:25;;;;;;;1.75;1.10;;;7.70;99.90;;;;;;5033566;28;20488;-69
2023/01/08 08:19:51;;;;;;;2.72;1.13;;;7.70;99.90;;;;;;5033567;28;20037;-70
2023/01/08 08:22:16;;;;;;;1.08;0.70;;;7.70;99.90;;;;;;5017119;28;20083;-69
2023/01/08 08:24:42;;;;;;;5.97;1.95;;;7.70;99.90;;;;;;5033531;28;20075;-69
2023/01/08 08:27:08;;;;;;;2.50;0.88;;;7.60;99.90;;;;;;5034277;28;20102;-69
2023/01/08 08:29:33;;;;;;;1.15;0.85;;;7.70;99.90;;;;;;5037379;28;20052;-69
2023/01/08 08:31:59;;;;;;;4.32;1.23;;;7.70;99.90;;;;;;5055351;28;20403;-69
2023/01/08 08:34:24;;;;;;;3.20;1.02;;;7.70;99.90;;;;;;5037363;28;20527;-70
2023/01/08 08:36:50;;;;;;;4.60;1.00;;;7.70;99.90;;;;;;5036998;28;20048;-70
2023/01/08 08:39:16;;;;;;;1.88;0.85;;;7.70;99.90;;;;;;5020561;28;20041;-69
2023/01/08 08:41:41;;;;;;;1.83;0.85;;;7.70;99.90;;;;;;5020832;28;20472;-70
2023/01/08 08:44:08;;;;;;;9.48;1.33;;;7.70;99.90;;;;;;5036898;28;20036;-72
2023/01/08 08:46:33;;;;;;;8.23;1.35;;;7.60;99.90;;;;;;5020560;28;20522;-72
2023/01/08 08:48:59;;;;;;;3.78;1.30;;;7.60;99.90;;;;;;5036790;28;20083;-72
2023/01/08 08:51:25;;;;;;;1.73;0.82;;;7.80;99.90;;;;;;5036716;28;20077;-70
2023/01/08 08:53:51;;;;;;;5.72;1.25;;;7.70;99.90;;;;;;5037218;28;20051;-70
2023/01/08 08:56:17;;;;;;;0.93;0.60;;;7.70;99.90;;;;;;5036660;28;20041;-68
2023/01/08 08:58:44;;;;;;;2.60;0.93;;;7.80;99.90;;;;;;5037021;28;20381;-69
2023/01/08 09:01:10;;;;;;;2.05;0.60;;;7.80;99.90;;;;;;5036815;28;20053;-69
2023/01/08 09:03:36;;;;;;;2.90;0.88;;;7.80;99.90;;;;;;5036632;28;20033;-71
2023/01/08 09:06:02;;;;;;;1.90;0.77;;;7.80;99.90;;;;;;5036528;28;20040;-74
2023/01/08 09:08:28;;;;;;;3.38;0.77;;;7.80;99.90;;;;;;5020375;28;20045;-68
2023/01/08 09:10:53;;;;;;;2.45;0.57;;;7.80;99.90;;;;;;5019965;28;20067;-69
2023/01/08 09:13:19;;;;;;;1.80;0.70;;;7.90;99.90;;;;;;5036342;28;20045;-69
2023/01/08 09:15:45;;;;;;;1.63;0.55;;;7.90;99.90;;;;;;5036311;28;20102;-70
2023/01/08 09:18:10;;;;;;;1.45;1.13;;;7.90;99.90;;;;;;5036232;28;20037;-68
2023/01/08 09:20:36;;;;;;;2.40;0.70;;;7.90;99.90;;;;;;5019842;28;20037;-70
2023/01/08 09:23:02;;;;;;;1.17;0.90;;;10.10;99.90;;;;;;5036554;28;20132;-69
2023/01/08 09:25:28;;;;;;;0.73;0.40;;;7.90;99.90;;;;;;5054321;28;20073;-69
2023/01/08 09:28:10;;;;;;;5.75;1.30;;;8.00;99.90;;;;;;5019760;28;20049;-70
2023/01/08 09:30:37;;;;;;;6.97;0.70;;;8.00;99.90;;;;;;5036361;28;20052;-69
2023/01/08 09:33:04;;;;;;;0.50;0.50;;;8.00;99.90;;;;;;5035904;28;20424;-68
2023/01/08 09:35:31;;;;;;;0.93;0.60;;;8.00;99.90;;;;;;5036295;28;20389;-70
2023/01/08 09:37:56;;;;;;;3.22;0.32;;;8.10;99.90;;;;;;5035745;28;20037;-70
2023/01/08 09:40:27;;;;;;;0.40;0.40;;;8.10;99.90;;;;;;5035979;28;20381;-71
2023/01/08 09:43:02;;;;;;;9.15;1.38;;;8.20;99.90;;;;;;5036096;28;20086;-70
2023/01/08 09:45:30;;;;;;;3.70;0.85;;;8.30;99.90;;;;;;5036017;28;20076;-71
2023/01/08 09:47:59;;;;;;;2.20;0.98;;;8.20;99.90;;;;;;5035695;28;20037;-69
2023/01/08 09:50:27;;;;;;;5.03;0.60;;;8.20;99.90;;;;;;5019603;28;20029;-69
2023/01/08 09:52:53;;;;;;;1.35;0.52;;;8.20;99.90;;;;;;5053880;28;20451;-70
2023/01/08 09:55:19;;;;;;;2.88;0.80;;;8.20;99.90;;;;;;5053652;28;20048;-70
2023/01/08 09:57:46;;;;;;;2.88;0.60;;;8.20;99.90;;;;;;5035897;28;20562;-69
2023/01/08 10:00:27;;;;;;;5.55;0.85;;;8.30;99.90;;;;;;5019347;28;20025;-69
2023/01/08 10:02:53;;;;;;;1.35;0.50;;;8.40;99.90;;;;;;5053705;28;20041;-69
2023/01/08 10:05:19;;;;;;;2.70;0.77;;;8.30;99.90;;;;;;5035694;28;20492;-70
2023/01/08 10:07:45;;;;;;;1.73;0.70;;;8.30;99.90;;;;;;5035720;28;20043;-71
2023/01/08 10:10:32;;;;;;;2.00;0.63;;;8.30;99.90;;;;;;5019115;28;20037;-71
2023/01/08 10:12:58;;;;;;;5.10;1.00;;;8.30;99.90;;;;;;5035048;28;20055;-69
2023/01/08 10:15:24;;;;;;;2.83;0.68;;;8.30;99.90;;;;;;5035348;28;20047;-72
2023/01/08 10:17:59;;;;;;;2.15;1.45;;;8.30;99.90;;;;;;5035431;28;20041;-71
2023/01/08 10:20:25;;;;;;;2.75;1.45;;;8.30;99.90;;;;;;5035098;28;20420;-73
2023/01/08 10:22:55;;;;;;;1.95;0.40;;;8.40;99.90;;;;;;5018272;28;20463;-73
2023/01/08 10:25:26;;;;;;;2.60;1.10;;;8.40;99.90;;;;;;5035284;28;20076;-70
2023/01/08 10:27:52;;;;;;;2.35;1.10;;;8.40;99.90;;;;;;5053150;28;20392;-72
2023/01/08 10:30:21;;;;;;;1.02;0.70;;;8.40;99.90;;;;;;5035184;28;20056;-72
2023/01/08 10:32:50;;;;;;;0.63;0.38;;;8.50;99.90;;;;;;5034701;28;20088;-70
2023/01/08 10:35:19;;;;;;;2.15;0.85;;;8.50;99.90;;;;;;5034985;28;20049;-73
2023/01/08 10:37:46;;;;;;;0.52;0.47;;;8.50;99.90;;;;;;5034849;28;20466;-69
2023/01/08 10:40:32;;;;;;;3.92;0.57;;;8.50;99.90;;;;;;5034743;28;20403;-70
2023/01/08 10:43:06;;;;;;;1.00;0.65;;;8.50;99.90;;;;;;5034756;28;20083;-70
2023/01/08 10:45:32;;;;;;;1.33;1.02;;;8.60;99.90;;;;;;5034919;28;20395;-69
2023/01/08 10:48:01;;;;;;;2.50;0.77;;;8.60;99.90;;;;;;5034578;28;20048;-70
2023/01/08 10:50:29;;;;;;;3.03;0.60;;;8.60;99.90;;;;;;5034291;28;20135;-70
2023/01/08 10:53:03;;;;;;;3.17;1.35;;;8.60;99.90;;;;;;5018029;28;20080;-70
2023/01/08 10:55:38;;;;;;;2.60;0.55;;;8.70;99.90;;;;;;5034648;28;20045;-69
2023/01/08 10:58:10;;;;;;;3.20;1.13;;;8.70;99.90;;;;;;5052472;28;20033;-70
2023/01/08 11:00:36;;;;;;;1.20;0.52;;;8.70;99.90;;;;;;5052582;28;20441;-71
2023/01/08 11:03:06;;;;;;;2.72;1.52;;;8.80;99.90;;;;;;5018138;28;20480;-69
2023/01/08 11:05:37;;;;;;;3.15;0.73;;;8.80;99.90;;;;;;5034229;28;20049;-68
2023/01/08 11:08:06;;;;;;;1.73;0.70;;;8.80;99.90;;;;;;5034548;28;20044;-69
2023/01/08 11:10:35;;;;;;;2.15;0.47;;;9.70;99.90;;;;;;5034116;28;20124;-69
2023/01/08 11:13:04;;;;;;;3.38;0.60;;;8.90;99.90;;;;;;5052405;28;20496;-69
2023/01/08 11:15:37;;;;;;;1.13;0.50;;;9.00;99.90;;;;;;5033960;28;20416;-73
2023/01/08 11:18:15;;;;;;;2.88;0.90;;;9.00;99.90;;;;;;5034290;28;20414;-70
2023/01/08 11:20:41;;;;;;;4.57;0.85;;;9.00;99.90;;;;;;5034435;28;20071;-69
2023/01/08 11:23:20;;;;;;;1.67;0.60;;;9.00;99.90;;;;;;5034110;28;20106;-69
2023/01/08 11:26:12;;;;;;;3.95;0.70;;;9.10;99.90;;;;;;5034039;28;20045;-69
2023/01/08 11:28:55;;;;;;;2.22;0.60;;;9.10;99.90;;;;;;5020639;28;20053;-69
2023/01/08 11:31:46;;;;;;;0.70;0.15;;;9.20;99.90;;;;;;5033574;28;20523;-69
2023/01/08 11:34:26;;;;;;;8.43;0.83;;;9.20;99.90;;;;;;5033921;28;20057;-68
2023/01/08 11:36:58;;;;;;;5.90;0.82;;;9.30;99.90;;;;;;5033933;28;20135;-69
2023/01/08 11:39:24;;;;;;;2.90;0.75;;;9.30;99.90;;;;;;5017598;28;20041;-70
2023/01/08 11:42:11;;;;;;;3.90;1.00;;;9.40;99.90;;;;;;5033933;28;20037;-73
2023/01/08 11:44:56;;;;;;;6.32;0.85;;;9.50;99.90;;;;;;5050609;28;20397;-79
2023/01/08 11:47:40;;;;;;;6.18;1.25;;;9.60;99.90;;;;;;5034199;28;20153;-71
2023/01/08 11:50:23;;;;;;;1.55;0.63;;;9.50;99.90;;;;;;5033860;28;20041;-70
2023/01/08 11:53:19;;;;;;;4.53;0.77;;;9.60;99.90;;;;;;5033686;28;20435;-70
2023/01/08 11:56:01;;;;;;;2.45;0.85;;;9.50;99.90;;;;;;5033780;28;20041;-71
2023/01/08 11:59:00;;;;;;;7.80;0.80;;;9.40;99.90;;;;;;5051895;28;20045;-71
2023/01/08 12:02:17;;;;;;;2.03;1.15;;;9.30;99.90;;;;;;5033826;28;20060;-72
2023/01/08 12:04:52;;;;;;;5.05;1.10;;;9.30;99.90;;;;;;5021638;28;20227;-70
2023/01/08 12:07:31;;;;;;;2.85;1.38;;;9.30;99.90;;;;;;5021235;28;20574;-69
2023/01/08 12:10:23;;;;;;;3.25;0.50;;;9.50;99.90;;;;;;5037632;28;20037;-69
2023/01/08 12:13:05;;;;;;;3.55;0.77;;;9.60;99.90;;;;;;5055527;28;20055;-70
2023/01/08 12:16:04;;;;;;;4.00;0.75;;;9.80;99.90;;;;;;5020946;28;20166;-69
2023/01/08 12:19:06;;;;;;;3.38;1.05;;;9.90;99.90;;;;;;5037785;28;20041;-69
2023/01/08 12:21:32;;;;;;;3.88;0.60;;;10.30;99.90;;;;;;5055602;28;20037;-69
2023/01/08 12:24:06;;;;;;;2.15;0.60;;;10.30;99.90;;;;;;5037571;28;20051;-69
2023/01/08 12:27:04;;;;;;;2.35;1.10;;;10.20;99.90;;;;;;5037291;28;20049;-68
2023/01/08 12:29:36;;;;;;;4.20;0.95;;;9.90;99.90;;;;;;5055147;28;20041;-68
2023/01/08 12:32:23;;;;;;;1.98;0.77;;;9.70;99.90;;;;;;5055395;28;20052;-68
2023/01/08 12:34:59;;;;;;;2.90;0.95;;;9.50;99.90;;;;;;5055314;28;20067;-69
2023/01/08 12:37:24;;;;;;;2.45;0.95;;;9.40;99.90;;;;;;5055259;28;20045;-69
2023/01/08 12:40:05;;;;;;;1.63;0.98;;;9.20;99.90;;;;;;5037154;28;20090;-69
2023/01/08 12:42:33;;;;;;;;;;;9.30;99.90;;;;;;5037659;28;20052;-68
2023/01/08 12:45:00;;;;;;;1.77;0.82;;;9.40;99.90;;;;;;5036960;28;19925;-69
2023/01/08 12:47:30;;;;;;;4.35;1.20;;;9.40;99.90;;;;;;5053709;28;20080;-70
2023/01/08 12:50:35;;;;;;;1.88;0.60;;;9.70;99.90;;;;;;5036919;28;20041;-71
2023/01/08 12:53:20;;;;;;;3.00;1.00;;;9.70;99.90;;;;;;5014315;28;20492;-69
2023/01/08 12:56:01;;;;;;;4.25;0.77;;;9.70;99.90;;;;;;5036798;28;20512;-69
2023/01/08 12:58:44;;;;;;;2.47;0.50;;;9.60;99.90;;;;;;5036702;28;20045;-70
2023/01/08 13:01:44;;;;;;;9.73;1.10;;;9.60;99.90;;;;;;5036629;28;20399;-71
2023/01/08 13:04:11;;;;;;;1.80;0.80;;;9.60;99.90;;;;;;5036585;28;20381;-71
2023/01/08 13:06:37;;;;;;;0.98;0.65;;;9.50;99.90;;;;;;5036851;28;20561;-71
2023/01/08 13:09:03;;;;;;;3.08;0.75;;;10.30;99.90;;;;;;5020015;28;20400;-70
2023/01/08 13:11:37;;;;;;;1.80;0.70;;;9.60;99.90;;;;;;5036410;28;20484;-71